AIH7007 EGCC-LEAL
Flight info
| Callsign | AIH7007 |
|---|---|
| Flight time | N/A |
| Altitude | 37000 |
| Route | LISTO2S LISTO P18 TELBA/N0477F370 L151 KIDLI UN859 SOPIL DCT BALAN DCT LMG DCT PIMQO DCT AGN DCT ANETO DCT POSSY DCT XIMPE DCT RIMES N860 VLC VLC3L |
| Aircraft | MD11/H-SDE1E2E3FGHIJ2J3J4J5M1RWXY/LB1D1 |
Departure
| Time | N/A |
|---|---|
| Airport | Manchester Airport (EGCC) |
Arrival
| Time | 2026-04-29 18:37 |
|---|---|
| Airport | Alicante-Elche Miguel Hernández Airport (LEAL) |
| Time | Latitude | Longitude | Altitude | Speed | Heading |
|---|---|---|---|---|---|
| 2026-04-29 17:13 | 47.22081 | 1.05985 | 36930 ft | 448 kts | 183° |
| 2026-04-29 17:13 | 47.18998 | 1.05902 | 36930 ft | 448 kts | 183° |
| 2026-04-29 17:13 | 47.12763 | 1.05755 | 36928 ft | 448 kts | 183° |
| 2026-04-29 17:14 | 47.06530 | 1.05612 | 36927 ft | 448 kts | 183° |
| 2026-04-29 17:14 | 47.00298 | 1.05432 | 36925 ft | 448 kts | 184° |
| 2026-04-29 17:15 | 46.94071 | 1.05170 | 36922 ft | 447 kts | 184° |
| 2026-04-29 17:15 | 46.87853 | 1.04896 | 36922 ft | 447 kts | 184° |
| 2026-04-29 17:16 | 46.81634 | 1.04627 | 36925 ft | 447 kts | 184° |
| 2026-04-29 17:16 | 46.75412 | 1.04362 | 36917 ft | 447 kts | 184° |
| 2026-04-29 17:17 | 46.69195 | 1.04098 | 36919 ft | 447 kts | 184° |
| 2026-04-29 17:17 | 46.62976 | 1.03835 | 36919 ft | 447 kts | 184° |
| 2026-04-29 17:18 | 46.56792 | 1.03573 | 36917 ft | 447 kts | 184° |
| 2026-04-29 17:18 | 46.50586 | 1.03343 | 36916 ft | 446 kts | 183° |
| 2026-04-29 17:19 | 46.44365 | 1.03253 | 36914 ft | 446 kts | 182° |
| 2026-04-29 17:19 | 46.38148 | 1.03197 | 36914 ft | 446 kts | 182° |
| 2026-04-29 17:20 | 46.31936 | 1.03135 | 36916 ft | 446 kts | 182° |
| 2026-04-29 17:20 | 46.25738 | 1.03068 | 36917 ft | 446 kts | 182° |
| 2026-04-29 17:21 | 46.20579 | 1.03010 | 36919 ft | 446 kts | 182° |
| 2026-04-29 17:21 | 46.14374 | 1.02941 | 36926 ft | 445 kts | 182° |
| 2026-04-29 17:22 | 46.08181 | 1.02873 | 36932 ft | 445 kts | 182° |
| 2026-04-29 17:22 | 46.01993 | 1.02804 | 36935 ft | 444 kts | 182° |
| 2026-04-29 17:23 | 45.95812 | 1.02736 | 36936 ft | 445 kts | 182° |
| 2026-04-29 17:23 | 45.89620 | 1.02667 | 36937 ft | 445 kts | 182° |
| 2026-04-29 17:24 | 45.83423 | 1.02601 | 36937 ft | 445 kts | 181° |
| 2026-04-29 17:24 | 45.77260 | 1.03457 | 36937 ft | 447 kts | 173° |
| 2026-04-29 17:25 | 45.71137 | 1.05108 | 36935 ft | 448 kts | 171° |
| 2026-04-29 17:25 | 45.65053 | 1.06785 | 36931 ft | 448 kts | 172° |
| 2026-04-29 17:26 | 45.58928 | 1.08402 | 36927 ft | 447 kts | 172° |
| 2026-04-29 17:26 | 45.52757 | 1.09996 | 36933 ft | 447 kts | 172° |
| 2026-04-29 17:27 | 45.46627 | 1.11570 | 36930 ft | 447 kts | 172° |
| 2026-04-29 17:27 | 45.40505 | 1.13140 | 36930 ft | 447 kts | 172° |
| 2026-04-29 17:28 | 45.34388 | 1.14705 | 36930 ft | 447 kts | 172° |
| 2026-04-29 17:28 | 45.28211 | 1.16284 | 36925 ft | 448 kts | 172° |
| 2026-04-29 17:29 | 45.22055 | 1.17853 | 36930 ft | 449 kts | 172° |
| 2026-04-29 17:29 | 45.15887 | 1.19168 | 36927 ft | 446 kts | 180° |
| 2026-04-29 17:30 | 45.09790 | 1.18315 | 36934 ft | 443 kts | 192° |
| 2026-04-29 17:30 | 45.03762 | 1.16520 | 36929 ft | 443 kts | 193° |
| 2026-04-29 17:31 | 44.97712 | 1.14793 | 36920 ft | 443 kts | 192° |
| 2026-04-29 17:31 | 44.91640 | 1.13190 | 36922 ft | 444 kts | 191° |
| 2026-04-29 17:32 | 44.85560 | 1.11632 | 36925 ft | 444 kts | 191° |
| 2026-04-29 17:32 | 44.79485 | 1.10083 | 36922 ft | 444 kts | 191° |
| 2026-04-29 17:33 | 44.73400 | 1.08532 | 36923 ft | 444 kts | 191° |
| 2026-04-29 17:33 | 44.67317 | 1.06984 | 36924 ft | 444 kts | 191° |
| 2026-04-29 17:34 | 44.61232 | 1.05438 | 36921 ft | 444 kts | 191° |
| 2026-04-29 17:34 | 44.55155 | 1.03897 | 36920 ft | 444 kts | 191° |
| 2026-04-29 17:35 | 44.46074 | 1.01601 | 36915 ft | 444 kts | 191° |
| 2026-04-29 17:36 | 44.39992 | 1.00068 | 36917 ft | 444 kts | 191° |
| 2026-04-29 17:36 | 44.33904 | 0.98535 | 36919 ft | 444 kts | 191° |
| 2026-04-29 17:37 | 44.27810 | 0.97014 | 36915 ft | 444 kts | 191° |
| 2026-04-29 17:37 | 44.21728 | 0.95496 | 36918 ft | 444 kts | 191° |
| 2026-04-29 17:38 | 44.15639 | 0.93976 | 36918 ft | 445 kts | 191° |
| 2026-04-29 17:38 | 44.09551 | 0.92456 | 36916 ft | 445 kts | 191° |
| 2026-04-29 17:39 | 44.03449 | 0.90937 | 36914 ft | 445 kts | 191° |
| 2026-04-29 17:39 | 43.97359 | 0.89423 | 36917 ft | 445 kts | 191° |
| 2026-04-29 17:40 | 43.91293 | 0.87919 | 36914 ft | 445 kts | 191° |
| 2026-04-29 17:40 | 43.85197 | 0.86349 | 36919 ft | 445 kts | 192° |
| 2026-04-29 17:41 | 43.79105 | 0.84711 | 36917 ft | 446 kts | 192° |
| 2026-04-29 17:41 | 43.73009 | 0.83068 | 36919 ft | 446 kts | 192° |
| 2026-04-29 17:42 | 43.66907 | 0.81430 | 36919 ft | 446 kts | 192° |
| 2026-04-29 17:42 | 43.60806 | 0.79799 | 36917 ft | 447 kts | 191° |
| 2026-04-29 17:43 | 43.54722 | 0.78176 | 36915 ft | 448 kts | 191° |
| 2026-04-29 17:43 | 43.48598 | 0.76546 | 36916 ft | 448 kts | 191° |
| 2026-04-29 17:44 | 43.42473 | 0.74919 | 36913 ft | 448 kts | 192° |
| 2026-04-29 17:44 | 43.36355 | 0.73297 | 36914 ft | 448 kts | 192° |
| 2026-04-29 17:45 | 43.30271 | 0.71687 | 36911 ft | 448 kts | 192° |
| 2026-04-29 17:45 | 43.24151 | 0.70071 | 36915 ft | 448 kts | 192° |
| 2026-04-29 17:46 | 43.18029 | 0.68458 | 36922 ft | 447 kts | 192° |
| 2026-04-29 17:46 | 43.11920 | 0.66852 | 36920 ft | 447 kts | 192° |
| 2026-04-29 17:47 | 43.05814 | 0.65252 | 36928 ft | 447 kts | 192° |
| 2026-04-29 17:47 | 42.99712 | 0.63664 | 36942 ft | 446 kts | 192° |
| 2026-04-29 17:48 | 42.93635 | 0.62080 | 36947 ft | 444 kts | 192° |
| 2026-04-29 17:48 | 42.87588 | 0.60503 | 36949 ft | 444 kts | 192° |
| 2026-04-29 17:49 | 42.81520 | 0.58924 | 36974 ft | 444 kts | 192° |
| 2026-04-29 17:49 | 42.75438 | 0.57343 | 36991 ft | 445 kts | 192° |
| 2026-04-29 17:50 | 42.69378 | 0.55699 | 36996 ft | 444 kts | 196° |
| 2026-04-29 17:50 | 42.63638 | 0.52647 | 36987 ft | 443 kts | 206° |
| 2026-04-29 17:51 | 42.58109 | 0.48939 | 36999 ft | 445 kts | 206° |
| 2026-04-29 17:51 | 42.52547 | 0.45234 | 37011 ft | 445 kts | 206° |
| 2026-04-29 17:52 | 42.46970 | 0.41614 | 37004 ft | 444 kts | 206° |
| 2026-04-29 17:52 | 42.41378 | 0.38024 | 37006 ft | 444 kts | 206° |
| 2026-04-29 17:53 | 42.35805 | 0.34458 | 36996 ft | 447 kts | 206° |
| 2026-04-29 17:53 | 42.30178 | 0.30860 | 36993 ft | 447 kts | 206° |
| 2026-04-29 17:54 | 42.24548 | 0.27268 | 36978 ft | 447 kts | 206° |
| 2026-04-29 17:54 | 42.18934 | 0.23693 | 36963 ft | 446 kts | 206° |
| 2026-04-29 17:55 | 42.13305 | 0.20116 | 36970 ft | 446 kts | 207° |
| 2026-04-29 17:55 | 42.07677 | 0.16614 | 36963 ft | 446 kts | 202° |
| 2026-04-29 17:56 | 42.01614 | 0.14753 | 36949 ft | 450 kts | 189° |
| 2026-04-29 17:56 | 41.95404 | 0.13975 | 36946 ft | 451 kts | 187° |
| 2026-04-29 17:57 | 41.89143 | 0.13196 | 36946 ft | 451 kts | 188° |
| 2026-04-29 17:57 | 41.82895 | 0.12306 | 36937 ft | 451 kts | 189° |
| 2026-04-29 17:58 | 41.76644 | 0.11371 | 36924 ft | 451 kts | 189° |
| 2026-04-29 17:58 | 41.70401 | 0.10432 | 36936 ft | 451 kts | 189° |
| 2026-04-29 17:59 | 41.64161 | 0.09499 | 36935 ft | 451 kts | 189° |
| 2026-04-29 17:59 | 41.57957 | 0.08574 | 36932 ft | 451 kts | 189° |
| 2026-04-29 18:00 | 41.51714 | 0.07646 | 36929 ft | 451 kts | 189° |
| 2026-04-29 18:00 | 41.45472 | 0.06720 | 36934 ft | 451 kts | 189° |
| 2026-04-29 18:01 | 41.39227 | 0.05795 | 36929 ft | 451 kts | 189° |
| 2026-04-29 18:01 | 41.32986 | 0.04872 | 36914 ft | 451 kts | 190° |
| 2026-04-29 18:02 | 41.26740 | 0.03950 | 36927 ft | 451 kts | 190° |
| 2026-04-29 18:02 | 41.20490 | 0.03032 | 36925 ft | 451 kts | 190° |
| 2026-04-29 18:03 | 41.14280 | 0.02124 | 36926 ft | 451 kts | 190° |
| 2026-04-29 18:03 | 41.08030 | 0.01209 | 36924 ft | 452 kts | 190° |
| 2026-04-29 18:04 | 41.02797 | 0.00442 | 36929 ft | 452 kts | 190° |
| 2026-04-29 18:04 | 40.96583 | -0.00468 | 36933 ft | 452 kts | 190° |
| 2026-04-29 18:05 | 40.90343 | -0.01379 | 36915 ft | 450 kts | 191° |
| 2026-04-29 18:05 | 40.84128 | -0.02286 | 36935 ft | 449 kts | 191° |
| 2026-04-29 18:06 | 40.77917 | -0.03191 | 36940 ft | 449 kts | 191° |
| 2026-04-29 18:06 | 40.71699 | -0.04095 | 36943 ft | 449 kts | 191° |
| 2026-04-29 18:07 | 40.65491 | -0.04996 | 36954 ft | 449 kts | 191° |
| 2026-04-29 18:07 | 40.59285 | -0.05894 | 36934 ft | 449 kts | 191° |
| 2026-04-29 18:08 | 40.53158 | -0.07258 | 36943 ft | 444 kts | 199° |
| 2026-04-29 18:08 | 40.47257 | -0.09566 | 36890 ft | 442 kts | 202° |
| 2026-04-29 18:09 | 40.41437 | -0.11986 | 36909 ft | 441 kts | 201° |
| 2026-04-29 18:09 | 40.35556 | -0.14368 | 36896 ft | 442 kts | 201° |
| 2026-04-29 18:10 | 40.29671 | -0.16709 | 36888 ft | 442 kts | 201° |
| 2026-04-29 18:10 | 40.23781 | -0.19032 | 36885 ft | 442 kts | 201° |
| 2026-04-29 18:11 | 40.17888 | -0.21345 | 36902 ft | 442 kts | 201° |
| 2026-04-29 18:11 | 40.12002 | -0.23654 | 36920 ft | 442 kts | 201° |
| 2026-04-29 18:12 | 40.06091 | -0.25970 | 36956 ft | 443 kts | 201° |
| 2026-04-29 18:12 | 40.00189 | -0.28278 | 36946 ft | 443 kts | 201° |
| 2026-04-29 18:13 | 39.94272 | -0.30584 | 36953 ft | 444 kts | 201° |
| 2026-04-29 18:13 | 39.88356 | -0.32885 | 36893 ft | 445 kts | 201° |
| 2026-04-29 18:13 | 39.85425 | -0.34025 | 36636 ft | 445 kts | 201° |
| 2026-04-29 18:14 | 39.82454 | -0.35179 | 36256 ft | 445 kts | 201° |
| 2026-04-29 18:14 | 39.79485 | -0.36332 | 35742 ft | 446 kts | 201° |
| 2026-04-29 18:14 | 39.76514 | -0.37486 | 35185 ft | 447 kts | 201° |
| 2026-04-29 18:14 | 39.73541 | -0.38640 | 34635 ft | 448 kts | 201° |
| 2026-04-29 18:15 | 39.70541 | -0.39803 | 34066 ft | 449 kts | 201° |
| 2026-04-29 18:15 | 39.67525 | -0.40971 | 33468 ft | 450 kts | 201° |
| 2026-04-29 18:15 | 39.64518 | -0.42135 | 32891 ft | 452 kts | 201° |
| 2026-04-29 18:15 | 39.61492 | -0.43305 | 32304 ft | 454 kts | 201° |
| 2026-04-29 18:16 | 39.58460 | -0.44477 | 31762 ft | 457 kts | 201° |
| 2026-04-29 18:16 | 39.55398 | -0.45659 | 31143 ft | 460 kts | 200° |
| 2026-04-29 18:16 | 39.52324 | -0.46844 | 30540 ft | 463 kts | 200° |
| 2026-04-29 18:16 | 39.49222 | -0.48033 | 29934 ft | 464 kts | 200° |
| 2026-04-29 18:17 | 39.46122 | -0.49177 | 29243 ft | 462 kts | 199° |
| 2026-04-29 18:17 | 39.43032 | -0.50287 | 28555 ft | 457 kts | 199° |
| 2026-04-29 18:17 | 39.40018 | -0.51360 | 27909 ft | 453 kts | 199° |
| 2026-04-29 18:17 | 39.36994 | -0.52434 | 27272 ft | 449 kts | 199° |
| 2026-04-29 18:18 | 39.33998 | -0.53500 | 26637 ft | 445 kts | 199° |
| 2026-04-29 18:18 | 39.31020 | -0.54562 | 26018 ft | 441 kts | 198° |
| 2026-04-29 18:18 | 39.28080 | -0.55611 | 25393 ft | 438 kts | 198° |
| 2026-04-29 18:18 | 39.25154 | -0.56656 | 24787 ft | 434 kts | 198° |
| 2026-04-29 18:19 | 39.22256 | -0.57691 | 24187 ft | 431 kts | 198° |
| 2026-04-29 18:19 | 39.19379 | -0.58717 | 23587 ft | 427 kts | 198° |
| 2026-04-29 18:19 | 39.16526 | -0.59733 | 22904 ft | 424 kts | 198° |
| 2026-04-29 18:19 | 39.13691 | -0.60742 | 22262 ft | 419 kts | 198° |
| 2026-04-29 18:20 | 39.10896 | -0.61735 | 21663 ft | 415 kts | 198° |
| 2026-04-29 18:20 | 39.08120 | -0.62722 | 21077 ft | 412 kts | 198° |
| 2026-04-29 18:20 | 39.05374 | -0.63697 | 20499 ft | 408 kts | 198° |
| 2026-04-29 18:20 | 39.02646 | -0.64664 | 19909 ft | 404 kts | 198° |
| 2026-04-29 18:21 | 38.99940 | -0.65623 | 19317 ft | 401 kts | 198° |
| 2026-04-29 18:21 | 38.97259 | -0.66573 | 18812 ft | 398 kts | 198° |
| 2026-04-29 18:21 | 38.94603 | -0.67513 | 18285 ft | 395 kts | 197° |
| 2026-04-29 18:21 | 38.91995 | -0.68435 | 17685 ft | 391 kts | 197° |
| 2026-04-29 18:22 | 38.89356 | -0.69368 | 17105 ft | 388 kts | 197° |
| 2026-04-29 18:22 | 38.86790 | -0.70274 | 16559 ft | 385 kts | 197° |
| 2026-04-29 18:22 | 38.84183 | -0.71194 | 15992 ft | 383 kts | 197° |
| 2026-04-29 18:22 | 38.81660 | -0.72083 | 15463 ft | 379 kts | 197° |
| 2026-04-29 18:23 | 38.79124 | -0.72976 | 14913 ft | 376 kts | 197° |
| 2026-04-29 18:23 | 38.76617 | -0.73858 | 14360 ft | 372 kts | 197° |
| 2026-04-29 18:23 | 38.74130 | -0.74733 | 13871 ft | 369 kts | 198° |
| 2026-04-29 18:23 | 38.71661 | -0.75601 | 13518 ft | 366 kts | 197° |
| 2026-04-29 18:24 | 38.69226 | -0.76456 | 13363 ft | 354 kts | 197° |
| 2026-04-29 18:24 | 38.66919 | -0.77258 | 13255 ft | 334 kts | 197° |
| 2026-04-29 18:24 | 38.64732 | -0.78017 | 13132 ft | 317 kts | 198° |
| 2026-04-29 18:24 | 38.62658 | -0.78738 | 13013 ft | 301 kts | 198° |
| 2026-04-29 18:25 | 38.60737 | -0.79406 | 12908 ft | 274 kts | 198° |
| 2026-04-29 18:25 | 38.58972 | -0.80019 | 12793 ft | 254 kts | 198° |
| 2026-04-29 18:25 | 38.57277 | -0.80614 | 12695 ft | 251 kts | 198° |
| 2026-04-29 18:25 | 38.55596 | -0.81205 | 12520 ft | 250 kts | 198° |
| 2026-04-29 18:26 | 38.53977 | -0.81956 | 12124 ft | 247 kts | 214° |
| 2026-04-29 18:26 | 38.52693 | -0.83367 | 11656 ft | 243 kts | 227° |
| 2026-04-29 18:26 | 38.51571 | -0.84964 | 11173 ft | 237 kts | 228° |
| 2026-04-29 18:26 | 38.50495 | -0.86469 | 10697 ft | 223 kts | 226° |
| 2026-04-29 18:27 | 38.49430 | -0.87824 | 10266 ft | 210 kts | 223° |
| 2026-04-29 18:27 | 38.48375 | -0.89037 | 9861 ft | 197 kts | 220° |
| 2026-04-29 18:27 | 38.47330 | -0.90130 | 9453 ft | 193 kts | 218° |
| 2026-04-29 18:27 | 38.46253 | -0.91162 | 9069 ft | 194 kts | 216° |
| 2026-04-29 18:28 | 38.45143 | -0.92136 | 8709 ft | 193 kts | 213° |
| 2026-04-29 18:28 | 38.44004 | -0.93051 | 8365 ft | 194 kts | 211° |
| 2026-04-29 18:28 | 38.42835 | -0.93914 | 7999 ft | 195 kts | 211° |
| 2026-04-29 18:28 | 38.41659 | -0.94779 | 7515 ft | 195 kts | 209° |
| 2026-04-29 18:29 | 38.40445 | -0.95543 | 7015 ft | 195 kts | 204° |
| 2026-04-29 18:29 | 38.39621 | -0.95985 | 6695 ft | 193 kts | 199° |
| 2026-04-29 18:29 | 38.37896 | -0.96094 | 6026 ft | 187 kts | 169° |
| 2026-04-29 18:29 | 38.36643 | -0.95766 | 5592 ft | 180 kts | 168° |
| 2026-04-29 18:30 | 38.35453 | -0.95387 | 5278 ft | 175 kts | 159° |
| 2026-04-29 18:30 | 38.34418 | -0.94620 | 4977 ft | 171 kts | 137° |
| 2026-04-29 18:30 | 38.33734 | -0.93393 | 4819 ft | 172 kts | 107° |
| 2026-04-29 18:30 | 38.33462 | -0.91927 | 4765 ft | 172 kts | 103° |
| 2026-04-29 18:31 | 38.33174 | -0.90450 | 4618 ft | 170 kts | 103° |
| 2026-04-29 18:31 | 38.32906 | -0.88995 | 4514 ft | 169 kts | 102° |
| 2026-04-29 18:31 | 38.32652 | -0.87531 | 4386 ft | 169 kts | 101° |
| 2026-04-29 18:31 | 38.32445 | -0.86061 | 4255 ft | 168 kts | 100° |
| 2026-04-29 18:32 | 38.32244 | -0.84613 | 4138 ft | 168 kts | 100° |
| 2026-04-29 18:32 | 38.31837 | -0.81692 | 3819 ft | 167 kts | 100° |
| 2026-04-29 18:32 | 38.31634 | -0.80237 | 3613 ft | 166 kts | 100° |
| 2026-04-29 18:33 | 38.31433 | -0.78795 | 3412 ft | 165 kts | 100° |
| 2026-04-29 18:33 | 38.31232 | -0.77360 | 3204 ft | 165 kts | 100° |
| 2026-04-29 18:33 | 38.31029 | -0.75916 | 2987 ft | 165 kts | 98° |
| 2026-04-29 18:33 | 38.30830 | -0.74475 | 2789 ft | 165 kts | 98° |
| 2026-04-29 18:34 | 38.30629 | -0.73038 | 2577 ft | 164 kts | 99° |
| 2026-04-29 18:34 | 38.30498 | -0.72096 | 2459 ft | 163 kts | 99° |
| 2026-04-29 18:34 | 38.30233 | -0.70200 | 2143 ft | 161 kts | 99° |
| 2026-04-29 18:34 | 38.30037 | -0.68796 | 1929 ft | 161 kts | 100° |
| 2026-04-29 18:35 | 38.29841 | -0.67401 | 1726 ft | 159 kts | 100° |
| 2026-04-29 18:35 | 38.29648 | -0.66019 | 1478 ft | 158 kts | 99° |
| 2026-04-29 18:35 | 38.29457 | -0.64650 | 1286 ft | 157 kts | 100° |
| 2026-04-29 18:35 | 38.29264 | -0.63278 | 1090 ft | 157 kts | 101° |
| 2026-04-29 18:36 | 38.29078 | -0.61909 | 884 ft | 158 kts | 100° |
| 2026-04-29 18:36 | 38.28886 | -0.60538 | 688 ft | 157 kts | 101° |
| 2026-04-29 18:36 | 38.28693 | -0.59168 | 484 ft | 156 kts | 103° |
| 2026-04-29 18:36 | 38.28501 | -0.57825 | 250 ft | 155 kts | 101° |
| 2026-04-29 18:37 | 38.28322 | -0.56556 | 125 ft | 130 kts | 103° |
| 2026-04-29 18:37 | 38.28194 | -0.55664 | 105 ft | 74 kts | 100° |
| 2026-04-29 18:37 | 38.28138 | -0.55257 | 94 ft | 30 kts | 100° |
| 2026-04-29 18:37 | 38.28122 | -0.55038 | 91 ft | 23 kts | 88° |
| 2026-04-29 18:38 | 38.28153 | -0.54861 | 82 ft | 14 kts | 70° |
| 2026-04-29 18:38 | 38.28178 | -0.54773 | 72 ft | 10 kts | 67° |
| 2026-04-29 18:38 | 38.28221 | -0.54725 | 67 ft | 6 kts | 15° |
| 2026-04-29 18:38 | 38.28235 | -0.54734 | 72 ft | 3 kts | 324° |
| 2026-04-29 18:39 | 38.28252 | -0.54784 | 75 ft | 8 kts | 281° |
| 2026-04-29 18:39 | 38.28260 | -0.54843 | 82 ft | 5 kts | 279° |
| 2026-04-29 18:39 | 38.28263 | -0.54866 | 81 ft | 1 kts | 279° |
| 2026-04-29 18:39 | 38.28265 | -0.54883 | 84 ft | 3 kts | 279° |
| 2026-04-29 18:40 | 38.28269 | -0.54919 | 87 ft | 5 kts | 279° |
| 2026-04-29 18:40 | 38.28277 | -0.54974 | 87 ft | 7 kts | 279° |
| 2026-04-29 18:40 | 38.28287 | -0.55047 | 89 ft | 8 kts | 282° |
| 2026-04-29 18:40 | 38.28291 | -0.55069 | 88 ft | 0 kts | 282° |
| 2026-04-29 18:41 | 38.28292 | -0.55078 | 89 ft | 2 kts | 282° |
| 2026-04-29 18:41 | 38.28296 | -0.55105 | 92 ft | 5 kts | 282° |
| 2026-04-29 18:42 | 38.28302 | -0.55140 | 95 ft | 2 kts | 282° |
| 2026-04-29 18:42 | 38.28303 | -0.55147 | 94 ft | 1 kts | 279° |
| 2026-04-29 18:42 | 38.28307 | -0.55166 | 94 ft | 3 kts | 287° |
| 2026-04-29 18:42 | 38.28315 | -0.55187 | 96 ft | 3 kts | 299° |
| 2026-04-29 18:43 | 38.28326 | -0.55198 | 95 ft | 1 kts | 328° |
| 2026-04-29 18:43 | 38.28330 | -0.55199 | 96 ft | 0 kts | 338° |
| 2026-04-29 18:43 | 38.28336 | -0.55199 | 95 ft | 2 kts | 359° |
| 2026-04-29 18:44 | 38.28383 | -0.55163 | 98 ft | 12 kts | 46° |
| 2026-04-29 18:44 | 38.28414 | -0.55073 | 98 ft | 11 kts | 78° |
| 2026-04-29 18:44 | 38.28447 | -0.54997 | 97 ft | 11 kts | 38° |
| 2026-04-29 18:44 | 38.28519 | -0.54976 | 98 ft | 8 kts | 342° |
| 2026-04-29 18:45 | 38.28554 | -0.55020 | 99 ft | 5 kts | 307° |
| 2026-04-29 18:45 | 38.28565 | -0.55038 | 97 ft | 2 kts | 305° |
| 2026-04-29 18:45 | 38.28567 | -0.55042 | 97 ft | 0 kts | 305° |